Time;durP1;ratioP1;P1;durP2;ratioP2;P2;SDS_P1;SDS_P2;PMS_P1;PMS_P2;Temp;Humidity;BMP_temperature;BMP_pressure;BME280_temperature;BME280_humidity;BME280_pressure;Samples;Min_cycle;Max_cycle;Signal;HPM_P1;HPM_P2
2021/08/27 00:01:34;;;;;;;;;;;;;;;19.37;68.83;99934.56;3309769;29;20024;-70
2021/08/27 00:03:14;;;;;;;;;;;;;;;19.36;68.85;99932.94;3306264;29;20315;-71
2021/08/27 00:04:56;;;;;;;;;;;;;;;19.36;68.64;99946.44;3305103;29;20450;-70
2021/08/27 00:06:37;;;;;;;;;;;;;;;19.37;68.55;99945.38;3306045;29;19933;-70
2021/08/27 00:08:17;;;;;;;;;;;;;;;19.37;68.80;99944.56;3310245;29;20966;-70
2021/08/27 00:09:58;;;;;;;;;;;;;;;19.37;68.55;99947.25;3306669;29;19929;-70
2021/08/27 00:11:40;;;;;;;;;;;;;;;19.34;68.82;99945.06;3307123;29;19997;-70
2021/08/27 00:13:21;;;;;;;;;;;;;;;19.32;68.95;99947.19;3309426;29;20415;-70
2021/08/27 00:15:07;;;;;;;;;;;;;;;19.32;68.72;99948.00;3311363;29;19987;-70
2021/08/27 00:16:48;;;;;;;;;;;;;;;19.33;68.92;99944.22;3312318;29;19933;-70
2021/08/27 00:18:28;;;;;;;;;;;;;;;19.34;68.66;99945.06;3311882;29;20227;-70
2021/08/27 00:20:09;;;;;;;;;;;;;;;19.35;68.73;99946.69;3324085;29;19929;-70
2021/08/27 00:21:50;;;;;;;;;;;;;;;19.36;68.66;99951.84;3310087;29;21013;-70
2021/08/27 00:23:31;;;;;;;;;;;;;;;19.39;68.76;99955.94;3308977;29;19936;-69
2021/08/27 00:25:11;;;;;;;;;;;;;;;19.38;68.74;99940.78;3310687;29;19929;-71
2021/08/27 00:26:52;;;;;;;;;;;;;;;19.38;68.72;99947.00;3306185;29;19925;-70
2021/08/27 00:28:33;;;;;;;;;;;;;;;19.39;68.81;99958.66;3305229;29;19933;-70
2021/08/27 00:30:13;;;;;;;;;;;;;;;19.38;68.81;99943.47;3309023;29;19929;-71
2021/08/27 00:31:54;;;;;;;;;;;;;;;19.38;68.79;99951.59;3305764;29;20653;-70
2021/08/27 00:33:34;;;;;;;;;;;;;;;19.38;68.84;99951.59;3307217;29;19936;-71
2021/08/27 00:35:17;;;;;;;;;;;;;;;19.37;68.86;99952.66;3304731;29;19929;-71
2021/08/27 00:37:00;;;;;;;;;;;;;;;19.36;68.84;99954.56;3304164;29;21383;-71
2021/08/27 00:38:41;;;;;;;;;;;;;;;19.35;69.12;99949.38;3306000;29;20459;-70
2021/08/27 00:40:22;;;;;;;;;;;;;;;19.33;68.62;99946.09;3304265;29;19933;-71
2021/08/27 00:42:02;;;;;;;;;;;;;;;19.31;68.99;99950.94;3311699;29;20393;-70
2021/08/27 00:43:44;;;;;;;;;;;;;;;19.31;68.92;99954.47;3311839;29;20465;-69
2021/08/27 00:45:24;;;;;;;;;;;;;;;19.31;69.06;99945.53;3304772;29;19933;-70
2021/08/27 00:47:05;;;;;;;;;;;;;;;19.31;69.00;99948.22;3305911;29;19933;-70
2021/08/27 00:48:46;;;;;;;;;;;;;;;19.31;68.97;99946.38;3303857;29;19929;-70
2021/08/27 00:50:26;;;;;;;;;;;;;;;19.31;69.00;99942.81;3305523;29;19933;-71
2021/08/27 00:52:07;;;;;;;;;;;;;;;19.30;68.94;99943.91;3305404;29;19929;-71
2021/08/27 00:53:48;;;;;;;;;;;;;;;19.30;69.00;99949.31;3306886;29;20286;-71
2021/08/27 00:55:29;;;;;;;;;;;;;;;19.29;68.97;99950.38;3306005;29;20369;-71
2021/08/27 00:57:10;;;;;;;;;;;;;;;19.27;69.00;99945.22;3304368;29;19929;-71
2021/08/27 00:58:50;;;;;;;;;;;;;;;19.30;68.94;99943.91;3308724;29;19929;-71
2021/08/27 01:00:31;;;;;;;;;;;;;;;19.29;69.02;99943.09;3306868;29;20344;-70
2021/08/27 01:02:12;;;;;;;;;;;;;;;19.29;68.88;99942.28;3306124;29;19929;-72
2021/08/27 01:03:53;;;;;;;;;;;;;;;19.28;68.89;99936.03;3307504;29;20294;-71
2021/08/27 01:05:34;;;;;;;;;;;;;;;19.28;69.13;99941.44;3312203;29;19932;-71
2021/08/27 01:07:35;;;;;;;;;;;;;;;19.27;69.16;99939.00;3314820;29;19925;-70
2021/08/27 01:09:24;;;;;;;;;;;;;;;19.26;69.23;99942.72;3314449;29;19936;-71
2021/08/27 01:11:20;;;;;;;;;;;;;;;19.27;68.92;99949.78;3310564;29;20025;-71
2021/08/27 01:13:10;;;;;;;;;;;;;;;19.26;68.97;99937.34;3308278;29;19978;-70
2021/08/27 01:14:58;;;;;;;;;;;;;;;19.25;68.83;99938.41;3307089;29;19958;-71
2021/08/27 01:16:41;;;;;;;;;;;;;;;19.25;69.11;99946.50;3302757;29;19929;-70
2021/08/27 01:18:40;;;;;;;;;;;;;;;19.25;69.33;99936.53;3306370;29;19929;-71
2021/08/27 01:20:24;;;;;;;;;;;;;;;19.25;69.28;99941.09;3309976;29;19933;-70
2021/08/27 01:22:24;;;;;;;;;;;;;;;19.25;69.15;99935.72;3314634;29;19933;-71
2021/08/27 01:24:05;;;;;;;;;;;;;;;19.25;69.04;99941.09;3306221;29;19941;-71
2021/08/27 01:25:47;;;;;;;;;;;;;;;19.26;69.41;99942.72;3303458;29;19936;-71
2021/08/27 01:27:28;;;;;;;;;;;;;;;19.28;69.30;99943.31;3305637;29;19929;-71
2021/08/27 01:29:08;;;;;;;;;;;;;;;19.27;69.56;99937.09;3313217;29;19960;-70
2021/08/27 01:30:53;;;;;;;;;;;;;;;19.27;69.30;99933.59;3314359;29;20317;-70
2021/08/27 01:32:52;;;;;;;;;;;;;;;19.27;69.09;99937.09;3309913;29;19929;-74
2021/08/27 01:34:34;;;;;;;;;;;;;;;19.27;69.22;99933.59;3309853;29;19933;-71
2021/08/27 01:36:15;;;;;;;;;;;;;;;19.25;69.58;99939.22;3310995;29;19929;-71
2021/08/27 01:37:55;;;;;;;;;;;;;;;19.28;69.46;99946.03;3309944;29;19940;-71
2021/08/27 01:39:38;;;;;;;;;;;;;;;19.30;69.58;99941.19;3310303;29;19994;-70
2021/08/27 01:41:18;;;;;;;;;;;;;;;19.31;69.36;99937.41;3313532;29;19972;-71
2021/08/27 01:42:59;;;;;;;;;;;;;;;19.32;69.20;99941.78;3313250;29;19936;-71
2021/08/27 01:44:40;;;;;;;;;;;;;;;19.31;69.49;99942.81;3313485;29;19939;-71
2021/08/27 01:46:21;;;;;;;;;;;;;;;19.30;69.37;99943.91;3308972;29;19933;-72
2021/08/27 01:48:04;;;;;;;;;;;;;;;19.29;69.27;99947.69;3310820;29;19929;-71
2021/08/27 01:49:45;;;;;;;;;;;;;;;19.28;69.52;99951.41;3311515;29;19981;-71
2021/08/27 01:51:26;;;;;;;;;;;;;;;19.27;69.22;99952.50;3311337;29;19936;-71
2021/08/27 01:53:06;;;;;;;;;;;;;;;19.26;69.55;99945.44;3310753;29;20397;-72
2021/08/27 01:54:47;;;;;;;;;;;;;;;19.24;69.29;99948.41;3310034;29;19936;-71
2021/08/27 01:56:28;;;;;;;;;;;;;;;19.23;69.33;99954.03;3322155;29;19928;-71
2021/08/27 01:58:08;;;;;;;;;;;;;;;19.22;69.35;99952.41;3316183;29;19929;-71
2021/08/27 01:59:49;;;;;;;;;;;;;;;19.22;69.40;99949.72;3314321;29;19935;-71
2021/08/27 02:01:29;;;;;;;;;;;;;;;19.22;69.38;99953.22;3312439;29;19929;-71
2021/08/27 02:03:10;;;;;;;;;;;;;;;19.23;69.46;99951.34;3313023;29;19936;-72
2021/08/27 02:04:51;;;;;;;;;;;;;;;19.24;69.59;99950.28;3313228;29;19936;-70
2021/08/27 02:06:32;;;;;;;;;;;;;;;19.23;69.54;99943.22;3309719;29;19936;-71
2021/08/27 02:08:12;;;;;;;;;;;;;;;19.22;69.51;99947.00;3314198;29;19929;-71
2021/08/27 02:09:54;;;;;;;;;;;;;;;19.22;69.26;99947.00;3312560;29;19929;-71
2021/08/27 02:11:35;;;;;;;;;;;;;;;19.21;69.51;99945.38;3313461;29;19935;-71
2021/08/27 02:13:15;;;;;;;;;;;;;;;19.21;69.52;99942.69;3311558;29;19929;-71
2021/08/27 02:14:56;;;;;;;;;;;;;;;19.21;69.52;99950.78;3310032;29;19929;-71
2021/08/27 02:16:36;;;;;;;;;;;;;;;19.21;69.61;99946.19;3312783;29;19929;-71
2021/08/27 02:18:17;;;;;;;;;;;;;;;19.20;69.59;99938.31;3313050;29;19936;-71
2021/08/27 02:19:58;;;;;;;;;;;;;;;19.20;69.67;99943.72;3313865;29;19932;-71
2021/08/27 02:21:41;;;;;;;;;;;;;;;19.19;69.65;99937.50;3312940;29;19929;-70
2021/08/27 02:23:23;;;;;;;;;;;;;;;19.20;69.64;99954.53;3313016;29;19959;-70
2021/08/27 02:25:07;;;;;;;;;;;;;;;19.20;69.67;99952.66;3311997;29;19929;-70
2021/08/27 02:26:49;;;;;;;;;;;;;;;19.18;69.50;99958.31;3310510;29;19928;-71
2021/08/27 02:28:29;;;;;;;;;;;;;;;19.17;69.87;99962.06;3312089;29;19942;-70
2021/08/27 02:30:10;;;;;;;;;;;;;;;19.16;69.78;99960.44;3313067;29;20001;-70
2021/08/27 02:31:52;;;;;;;;;;;;;;;19.16;69.57;99959.63;3310248;29;19986;-71
2021/08/27 02:33:33;;;;;;;;;;;;;;;19.14;69.86;99957.16;3308442;29;19966;-70
2021/08/27 02:35:14;;;;;;;;;;;;;;;19.12;69.67;99961.97;3313334;29;19929;-70
2021/08/27 02:36:56;;;;;;;;;;;;;;;19.12;69.83;99963.88;3312804;29;19982;-70
2021/08/27 02:38:36;;;;;;;;;;;;;;;19.11;69.77;99967.63;3314299;29;20393;-71
2021/08/27 02:40:17;;;;;;;;;;;;;;;19.11;70.04;99968.47;3325288;29;19936;-70
2021/08/27 02:41:58;;;;;;;;;;;;;;;19.12;69.88;99961.97;3314942;29;19929;-70
2021/08/27 02:43:38;;;;;;;;;;;;;;;19.13;69.87;99970.94;3311661;29;19929;-71
2021/08/27 02:45:19;;;;;;;;;;;;;;;19.12;69.85;99970.09;3310007;29;20392;-71
2021/08/27 02:47:00;;;;;;;;;;;;;;;19.12;69.83;99975.47;3313476;29;19933;-71
2021/08/27 02:48:40;;;;;;;;;;;;;;;19.12;69.91;99972.78;3312871;29;19929;-70
2021/08/27 02:50:21;;;;;;;;;;;;;;;19.13;69.71;99965.53;3313458;29;19933;-70
2021/08/27 02:52:20;;;;;;;;;;;;;;;19.12;69.71;99961.97;3311573;29;19929;-70
2021/08/27 02:54:02;;;;;;;;;;;;;;;19.13;69.92;99965.53;3311991;29;19933;-71
2021/08/27 02:55:45;;;;;;;;;;;;;;;19.13;69.72;99968.22;3311937;29;20016;-70
2021/08/27 02:57:26;;;;;;;;;;;;;;;19.12;69.91;99972.78;3310162;29;19972;-71
2021/08/27 02:59:11;;;;;;;;;;;;;;;19.10;69.83;99980.34;3313395;29;19959;-70
2021/08/27 03:00:54;;;;;;;;;;;;;;;19.12;69.63;99980.88;3311152;29;20027;-71
2021/08/27 03:02:35;;;;;;;;;;;;;;;19.11;69.76;99981.97;3310264;29;19933;-71
2021/08/27 03:04:33;;;;;;;;;;;;;;;19.12;69.91;99980.88;3310568;29;19933;-70
2021/08/27 03:06:15;;;;;;;;;;;;;;;19.12;69.92;99978.19;3311794;29;20409;-71
2021/08/27 03:08:00;;;;;;;;;;;;;;;19.12;70.03;99980.88;3308905;29;19936;-71
2021/08/27 03:09:48;;;;;;;;;;;;;;;19.12;69.93;99972.78;3308990;29;19929;-71
2021/08/27 03:11:30;;;;;;;;;;;;;;;19.15;69.66;99987.69;3312451;29;20015;-71
2021/08/27 03:13:12;;;;;;;;;;;;;;;19.16;69.77;99981.25;3312586;29;20366;-71
2021/08/27 03:14:53;;;;;;;;;;;;;;;19.13;69.61;99982.53;3308993;29;19936;-71
2021/08/27 03:16:34;;;;;;;;;;;;;;;19.09;69.71;99989.50;3313256;29;19936;-71
2021/08/27 03:18:33;;;;;;;;;;;;;;;19.09;69.78;99986.78;3312577;29;20366;-71
2021/08/27 03:20:24;;;;;;;;;;;;;;;19.08;69.89;99985.16;3310525;29;19992;-71
2021/08/27 03:22:06;;;;;;;;;;;;;;;19.10;70.01;99987.59;3311295;29;20305;-71
2021/08/27 03:23:48;;;;;;;;;;;;;;;19.10;69.72;99999.25;3306955;29;19929;-71
2021/08/27 03:25:28;;;;;;;;;;;;;;;19.10;69.56;99993.84;3310339;29;20413;-71
2021/08/27 03:27:11;;;;;;;;;;;;;;;19.09;69.86;99992.19;3311840;29;19929;-71
2021/08/27 03:28:55;;;;;;;;;;;;;;;19.10;69.92;99996.53;3312159;29;20058;-71
2021/08/27 03:30:35;;;;;;;;;;;;;;;19.11;69.60;99995.47;3309456;29;19929;-71
2021/08/27 03:32:16;;;;;;;;;;;;;;;19.09;69.43;99997.59;3308044;29;19981;-71
2021/08/27 03:33:58;;;;;;;;;;;;;;;19.07;69.89;99997.00;3297401;29;19929;-71
2021/08/27 03:35:39;;;;;;;;;;;;;;;19.05;69.50;99999.16;3305613;29;19936;-71
2021/08/27 03:37:19;;;;;;;;;;;;;;;19.05;70.00;100001.88;3312989;29;19976;-72
2021/08/27 03:39:00;;;;;;;;;;;;;;;19.03;69.94;100001.28;3312002;29;20314;-71
2021/08/27 03:40:41;;;;;;;;;;;;;;;19.04;69.87;100005.59;3311913;29;19935;-71
2021/08/27 03:42:22;;;;;;;;;;;;;;;19.07;69.94;100005.13;3312050;29;20038;-71
2021/08/27 03:44:03;;;;;;;;;;;;;;;19.12;69.78;100007.09;3312736;29;20298;-73
2021/08/27 03:45:43;;;;;;;;;;;;;;;19.14;69.95;100011.19;3310826;29;20497;-72
2021/08/27 03:47:24;;;;;;;;;;;;;;;19.17;69.55;100004.47;3309262;29;19929;-72
2021/08/27 03:49:05;;;;;;;;;;;;;;;19.17;69.74;100005.28;3308404;29;20309;-72
2021/08/27 03:50:49;;;;;;;;;;;;;;;19.20;69.67;100006.69;3311878;29;19936;-71
2021/08/27 03:52:30;;;;;;;;;;;;;;;19.23;69.29;100016.19;3312021;29;20381;-71
2021/08/27 03:54:10;;;;;;;;;;;;;;;19.23;69.32;100008.09;3310643;29;19976;-71
2021/08/27 03:55:51;;;;;;;;;;;;;;;19.22;69.08;100006.47;3320322;29;19973;-72
2021/08/27 03:57:32;;;;;;;;;;;;;;;19.20;69.46;100011.28;3324347;29;20362;-70
2021/08/27 03:59:13;;;;;;;;;;;;;;;19.21;69.54;100012.94;3315175;29;19973;-70
2021/08/27 04:00:54;;;;;;;;;;;;;;;19.24;69.25;100015.16;3309257;29;20345;-70
2021/08/27 04:02:34;;;;;;;;;;;;;;;19.26;69.55;100019.25;3309420;29;19952;-70
2021/08/27 04:04:21;;;;;;;;;;;;;;;19.26;69.30;100019.25;3309321;29;19954;-72
2021/08/27 04:06:03;;;;;;;;;;;;;;;19.28;69.45;100027.91;3310634;29;20456;-70
2021/08/27 04:07:43;;;;;;;;;;;;;;;19.30;69.14;100027.69;3311055;29;19933;-70
2021/08/27 04:09:24;;;;;;;;;;;;;;;19.31;68.95;100026.59;3311608;29;20363;-71
2021/08/27 04:11:06;;;;;;;;;;;;;;;19.33;69.14;100030.69;3310767;29;20028;-71
2021/08/27 04:12:46;;;;;;;;;;;;;;;19.37;69.14;100031.06;3312060;29;19967;-71
2021/08/27 04:14:27;;;;;;;;;;;;;;;19.40;68.78;100041.38;3312435;29;19925;-71
2021/08/27 04:16:07;;;;;;;;;;;;;;;19.44;68.77;100039.84;3312038;29;19933;-71
2021/08/27 04:17:48;;;;;;;;;;;;;;;19.47;68.61;100042.03;3310255;29;20458;-71
2021/08/27 04:19:29;;;;;;;;;;;;;;;19.46;68.81;100040.38;3312602;29;19933;-71
2021/08/27 04:21:09;;;;;;;;;;;;;;;19.48;68.49;100040.16;3312536;29;19936;-71
2021/08/27 04:22:50;;;;;;;;;;;;;;;19.50;68.77;100029.91;3311595;29;19929;-71
2021/08/27 04:24:31;;;;;;;;;;;;;;;19.51;68.72;100035.06;3309646;29;19986;-72
2021/08/27 04:26:11;;;;;;;;;;;;;;;19.52;68.41;100036.72;3322440;29;19933;-72
2021/08/27 04:27:53;;;;;;;;;;;;;;;19.51;68.51;100035.06;3314428;29;19929;-71
2021/08/27 04:29:33;;;;;;;;;;;;;;;19.50;68.33;100036.13;3311893;29;20455;-71
2021/08/27 04:31:15;;;;;;;;;;;;;;;19.48;68.59;100040.16;3311723;29;19961;-71
2021/08/27 04:32:55;;;;;;;;;;;;;;;19.47;68.48;100033.94;3312558;29;19929;-71
2021/08/27 04:34:36;;;;;;;;;;;;;;;19.46;68.42;100034.97;3312505;29;19925;-71
2021/08/27 04:36:16;;;;;;;;;;;;;;;19.46;68.20;100040.38;3309247;29;20031;-71
2021/08/27 04:37:57;;;;;;;;;;;;;;;19.44;68.22;100039.84;3310111;29;19985;-71
2021/08/27 04:39:37;;;;;;;;;;;;;;;19.41;68.22;100037.59;3316448;29;19935;-71
2021/08/27 04:41:19;;;;;;;;;;;;;;;19.42;68.46;100039.25;3316541;29;20024;-71
2021/08/27 04:42:59;;;;;;;;;;;;;;;19.43;68.33;100035.47;3315724;29;19929;-71
2021/08/27 04:44:40;;;;;;;;;;;;;;;19.44;68.15;100036.28;3316734;29;20436;-71
2021/08/27 04:46:20;;;;;;;;;;;;;;;19.46;68.35;100032.28;3313491;29;20393;-72
2021/08/27 04:48:01;;;;;;;;;;;;;;;19.49;68.14;100031.81;3316344;29;20401;-72
2021/08/27 04:49:41;;;;;;;;;;;;;;;19.51;67.68;100035.06;3316572;29;19936;-72
2021/08/27 04:51:22;;;;;;;;;;;;;;;19.54;67.81;100040.00;3315708;29;19951;-71
2021/08/27 04:53:02;;;;;;;;;;;;;;;19.56;67.72;100037.84;3315303;29;19929;-71
2021/08/27 04:54:43;;;;;;;;;;;;;;;19.55;67.50;100049.75;3314402;29;20423;-72
2021/08/27 04:56:24;;;;;;;;;;;;;;;19.54;67.95;100045.41;3315244;29;19929;-72
2021/08/27 04:58:04;;;;;;;;;;;;;;;19.55;67.64;100044.34;3316172;29;19929;-71
2021/08/27 04:59:46;;;;;;;;;;;;;;;19.58;67.81;100043.03;3314611;29;19929;-71
2021/08/27 05:01:27;;;;;;;;;;;;;;;19.62;67.38;100044.19;3315676;29;19936;-71
2021/08/27 05:03:07;;;;;;;;;;;;;;;19.64;67.54;100052.84;3316292;29;20054;-72
2021/08/27 05:04:48;;;;;;;;;;;;;;;19.64;67.46;100046.63;3314488;29;19946;-71
2021/08/27 05:06:28;;;;;;;;;;;;;;;19.64;67.36;100049.34;3313371;29;19925;-71
2021/08/27 05:08:09;;;;;;;;;;;;;;;19.63;67.45;100050.41;3314769;29;19929;-71
2021/08/27 05:09:49;;;;;;;;;;;;;;;19.65;67.49;100042.88;3314879;29;19949;-71
2021/08/27 05:11:30;;;;;;;;;;;;;;;19.70;67.40;100049.22;3313719;29;19929;-70
2021/08/27 05:13:10;;;;;;;;;;;;;;;19.75;67.11;100043.88;3314781;29;19945;-70
2021/08/27 05:14:51;;;;;;;;;;;;;;;19.79;67.02;100049.63;3314138;29;19929;-71
2021/08/27 05:16:31;;;;;;;;;;;;;;;19.79;66.75;100044.19;3316265;29;20036;-71
2021/08/27 05:18:12;;;;;;;;;;;;;;;19.82;66.69;100049.13;3315853;29;20024;-71
2021/08/27 05:19:53;;;;;;;;;;;;;;;19.85;66.69;100045.91;3316563;29;20427;-71
2021/08/27 05:21:36;;;;;;;;;;;;;;;19.88;66.96;100053.56;3315054;29;20425;-70
2021/08/27 05:23:16;;;;;;;;;;;;;;;19.93;66.59;100053.63;3312095;29;19929;-71
2021/08/27 05:24:57;;;;;;;;;;;;;;;19.98;66.71;100058.28;3314400;29;20046;-71
2021/08/27 05:26:38;;;;;;;;;;;;;;;20.05;66.53;100058.94;3314965;29;20356;-73
2021/08/27 05:28:18;;;;;;;;;;;;;;;20.11;66.12;100055.25;3315370;29;19929;-71
2021/08/27 05:29:59;;;;;;;;;;;;;;;20.14;65.88;100062.06;3313196;29;19929;-71
2021/08/27 05:31:39;;;;;;;;;;;;;;;20.17;65.91;100046.13;3316251;29;20440;-70
2021/08/27 05:33:20;;;;;;;;;;;;;;;20.25;65.68;100055.72;3314063;29;19966;-71
2021/08/27 05:35:01;;;;;;;;;;;;;;;20.35;65.75;100055.03;3316197;29;20291;-71
2021/08/27 05:36:41;;;;;;;;;;;;;;;20.44;65.42;100054.34;3316221;29;19958;-71
2021/08/27 05:38:22;;;;;;;;;;;;;;;20.54;65.01;100058.25;3313769;29;19933;-70
2021/08/27 05:40:03;;;;;;;;;;;;;;;20.63;65.00;100067.63;3314632;29;19933;-72
2021/08/27 05:41:44;;;;;;;;;;;;;;;20.66;64.44;100059.00;3313077;29;20025;-72
2021/08/27 05:43:26;;;;;;;;;;;;;;;20.71;64.64;100056.34;3314946;29;19929;-71
2021/08/27 05:45:07;;;;;;;;;;;;;;;20.78;64.21;100061.56;3316239;29;19928;-72
2021/08/27 05:46:47;;;;;;;;;;;;;;;20.81;64.17;100067.31;3316434;29;20428;-71
2021/08/27 05:48:28;;;;;;;;;;;;;;;20.83;64.02;100070.59;3314248;29;19925;-70
2021/08/27 05:50:09;;;;;;;;;;;;;;;20.86;63.92;100069.25;3312859;29;20027;-71
2021/08/27 05:51:50;;;;;;;;;;;;;;;20.88;63.90;100077.94;3310466;29;19928;-71
2021/08/27 05:53:30;;;;;;;;;;;;;;;20.88;63.69;100067.94;3309596;29;19929;-71
2021/08/27 05:55:11;;;;;;;;;;;;;;;20.89;63.55;100080.41;3311903;29;19929;-71
2021/08/27 05:56:52;;;;;;;;;;;;;;;20.90;63.54;100082.03;3314351;29;19929;-71
2021/08/27 05:58:33;;;;;;;;;;;;;;;20.90;63.42;100082.03;3314236;29;19929;-71
2021/08/27 06:00:14;;;;;;;;;;;;;;;20.88;63.24;100092.31;3312343;29;19944;-72
2021/08/27 06:01:55;;;;;;;;;;;;;;;20.86;63.20;100086.34;3310413;29;19996;-70
2021/08/27 06:03:35;;;;;;;;;;;;;;;20.81;63.34;100088.16;3311201;29;19929;-72
2021/08/27 06:05:17;;;;;;;;;;;;;;;20.79;63.17;100088.41;3313450;29;20449;-72
2021/08/27 06:06:57;;;;;;;;;;;;;;;20.81;63.21;100083.56;3313830;29;19940;-71
2021/08/27 06:08:38;;;;;;;;;;;;;;;20.88;62.97;100083.34;3312903;29;19976;-72
2021/08/27 06:10:19;;;;;;;;;;;;;;;20.92;62.85;100084.50;3310257;29;19990;-71
2021/08/27 06:11:59;;;;;;;;;;;;;;;20.99;62.82;100084.28;3310913;29;20055;-71
2021/08/27 06:13:41;;;;;;;;;;;;;;;21.03;62.61;100078.13;3307078;29;20346;-71
2021/08/27 06:15:22;;;;;;;;;;;;;;;21.10;62.41;100083.34;3307024;29;19933;-71
2021/08/27 06:17:03;;;;;;;;;;;;;;;21.20;62.37;100079.94;3317328;29;19929;-72
2021/08/27 06:18:44;;;;;;;;;;;;;;;21.37;62.12;100079.81;3311729;29;20304;-70
2021/08/27 06:20:25;;;;;;;;;;;;;;;21.49;61.83;100085.94;3318747;29;19939;-71
2021/08/27 06:22:09;;;;;;;;;;;;;;;21.56;61.62;100090.09;3308219;29;19951;-70
2021/08/27 06:23:52;;;;;;;;;;;;;;;21.60;61.14;100081.44;3309701;29;19933;-70
2021/08/27 06:25:35;;;;;;;;;;;;;;;21.62;61.19;100088.22;3308953;29;19928;-71
2021/08/27 06:27:16;;;;;;;;;;;;;;;21.66;61.19;100092.06;3307123;29;19985;-71
2021/08/27 06:29:00;;;;;;;;;;;;;;;21.72;61.18;100095.66;3307974;29;19933;-70
2021/08/27 06:30:41;;;;;;;;;;;;;;;21.78;61.04;100092.69;3306852;29;20006;-71
2021/08/27 06:32:22;;;;;;;;;;;;;;;21.81;60.84;100085.13;3313518;29;19933;-70
2021/08/27 06:34:03;;;;;;;;;;;;;;;21.82;60.90;100090.31;3312901;29;19929;-72
2021/08/27 06:35:43;;;;;;;;;;;;;;;21.87;60.88;100094.97;3313908;29;19964;-73
2021/08/27 06:38:21;;;;;;;;;;;;;;;21.92;60.83;100092.28;3313812;29;19965;-72
2021/08/27 06:39:26;;;;;;;;;;;;;;;21.97;60.60;100090.44;3313405;29;19986;-72
2021/08/27 06:41:07;;;;;;;;;;;;;;;21.97;60.65;100085.00;3312576;29;19929;-72
2021/08/27 06:42:48;;;;;;;;;;;;;;;21.97;60.58;100095.03;3312026;29;19946;-72
2021/08/27 06:44:32;;;;;;;;;;;;;;;21.93;60.56;100088.47;3312879;29;19929;-72
2021/08/27 06:46:14;;;;;;;;;;;;;;;21.89;60.30;100093.63;3313805;29;19929;-71
2021/08/27 06:47:55;;;;;;;;;;;;;;;21.86;60.47;100088.69;3313309;29;20012;-73
2021/08/27 06:49:35;;;;;;;;;;;;;;;21.85;60.50;100089.78;3313946;29;20044;-72
2021/08/27 06:51:16;;;;;;;;;;;;;;;21.86;60.25;100093.31;3313998;29;19956;-72
2021/08/27 06:52:57;;;;;;;;;;;;;;;21.85;60.15;100100.63;3312776;29;19929;-72
2021/08/27 06:54:38;;;;;;;;;;;;;;;21.85;60.11;100099.81;3314895;29;19983;-73
2021/08/27 06:56:18;;;;;;;;;;;;;;;21.85;60.24;100105.25;3307262;29;20051;-78
2021/08/27 06:57:59;;;;;;;;;;;;;;;21.92;60.18;100101.25;3311771;29;20008;-75
2021/08/27 06:59:40;;;;;;;;;;;;;;;22.04;59.99;100094.81;3312520;29;20996;-74
2021/08/27 07:01:21;;;;;;;;;;;;;;;22.18;59.91;100102.25;3311061;29;20032;-77
2021/08/27 07:03:01;;;;;;;;;;;;;;;22.33;59.61;100100.72;3311675;29;20058;-75
2021/08/27 07:04:43;;;;;;;;;;;;;;;22.46;59.43;100103.00;3309309;29;20433;-75
2021/08/27 07:06:23;;;;;;;;;;;;;;;22.56;59.10;100097.63;3305408;29;19982;-75
2021/08/27 07:08:05;;;;;;;;;;;;;;;22.64;58.88;100094.41;3308416;29;19933;-76
2021/08/27 07:09:46;;;;;;;;;;;;;;;22.71;58.90;100098.75;3312872;29;19936;-75
2021/08/27 07:11:26;;;;;;;;;;;;;;;22.76;58.65;100101.50;3312479;29;19929;-77
2021/08/27 07:13:07;;;;;;;;;;;;;;;22.83;58.72;100104.81;3309124;29;19925;-75
2021/08/27 07:14:50;;;;;;;;;;;;;;;22.92;58.25;100099.66;3312981;29;19936;-75
2021/08/27 07:16:31;;;;;;;;;;;;;;;23.14;58.09;100107.66;3312459;29;20418;-75
2021/08/27 07:18:12;;;;;;;;;;;;;;;23.33;57.52;100106.06;3313207;29;19933;-76
2021/08/27 07:19:52;;;;;;;;;;;;;;;23.49;57.29;100105.03;3312832;29;19978;-77
2021/08/27 07:21:34;;;;;;;;;;;;;;;23.60;56.88;100103.13;3312208;29;20459;-75
2021/08/27 07:23:16;;;;;;;;;;;;;;;23.66;56.51;100106.66;3313117;29;19929;-75
2021/08/27 07:24:57;;;;;;;;;;;;;;;23.67;56.57;100103.69;3312361;29;19929;-74
2021/08/27 07:26:37;;;;;;;;;;;;;;;23.67;56.38;100095.53;3313119;29;19940;-73
2021/08/27 07:28:18;;;;;;;;;;;;;;;23.70;56.16;100102.31;3309246;29;20405;-78
2021/08/27 07:29:58;;;;;;;;;;;;;;;23.72;56.27;100114.59;3311572;29;20074;-76
2021/08/27 07:31:39;;;;;;;;;;;;;;;23.74;56.25;100117.03;3312747;29;20020;-77
2021/08/27 07:33:19;;;;;;;;;;;;;;;23.80;56.00;100110.53;3312558;29;19929;-76
2021/08/27 07:35:00;;;;;;;;;;;;;;;23.85;55.93;100110.53;3323371;29;20378;-79
2021/08/27 07:36:41;;;;;;;;;;;;;;;23.89;56.06;100114.31;3306830;29;20456;-73
2021/08/27 07:38:22;;;;;;;;;;;;;;;23.94;55.81;100114.31;3302647;29;19944;-78
2021/08/27 07:40:03;;;;;;;;;;;;;;;23.96;56.15;100122.22;3312490;29;19929;-78
2021/08/27 07:41:44;;;;;;;;;;;;;;;23.97;55.86;100114.88;3313476;29;20415;-76
2021/08/27 07:43:25;;;;;;;;;;;;;;;23.98;56.20;100113.78;3311957;29;19929;-79
2021/08/27 07:45:06;;;;;;;;;;;;;;;24.00;56.07;100114.31;3312595;29;20417;-73
2021/08/27 07:46:46;;;;;;;;;;;;;;;24.00;55.82;100117.84;3318217;29;20354;-74
2021/08/27 07:48:27;;;;;;;;;;;;;;;24.00;55.64;100122.50;3325058;29;19963;-74
2021/08/27 07:50:08;;;;;;;;;;;;;;;23.98;55.59;100114.59;3325352;29;19929;-74
2021/08/27 07:51:50;;;;;;;;;;;;;;;24.00;55.41;100119.75;3327670;29;19951;-74
2021/08/27 07:53:31;;;;;;;;;;;;;;;24.01;55.10;100116.78;3325740;29;19928;-74
2021/08/27 07:55:11;;;;;;;;;;;;;;;24.02;55.40;100123.03;3325774;29;19931;-75
2021/08/27 07:56:52;;;;;;;;;;;;;;;23.99;55.10;100120.88;3325344;29;19928;-73
2021/08/27 07:58:33;;;;;;;;;;;;;;;24.00;54.97;100125.22;3325197;29;19929;-73
2021/08/27 08:00:16;;;;;;;;;;;;;;;24.04;54.98;100124.41;3324348;29;19929;-74
2021/08/27 08:01:57;;;;;;;;;;;;;;;24.07;54.37;100120.31;3325164;29;19929;-73
2021/08/27 08:03:37;;;;;;;;;;;;;;;24.13;54.48;100119.22;3325034;29;19952;-73
2021/08/27 08:05:18;;;;;;;;;;;;;;;24.18;54.41;100121.94;3325173;29;20432;-73
2021/08/27 08:06:58;;;;;;;;;;;;;;;24.24;54.10;100126.28;3336522;29;19992;-73
2021/08/27 08:08:39;;;;;;;;;;;;;;;24.32;54.31;100128.47;3327369;29;20035;-73
2021/08/27 08:10:19;;;;;;;;;;;;;;;24.38;54.07;100119.16;3325414;29;20281;-73
2021/08/27 08:12:00;;;;;;;;;;;;;;;24.44;54.04;100119.97;3324819;29;20297;-73
2021/08/27 08:13:40;;;;;;;;;;;;;;;24.50;53.75;100123.53;3324461;29;20324;-72
2021/08/27 08:15:26;;;;;;;;;;;;;;;24.53;53.74;100117.53;3325165;29;19939;-73
2021/08/27 08:17:08;;;;;;;;;;;;;;;24.54;53.75;100119.97;3325214;29;20030;-74
2021/08/27 08:18:49;;;;;;;;;;;;;;;24.55;53.59;100115.34;3325212;29;19936;-72
2021/08/27 08:20:29;;;;;;;;;;;;;;;24.60;53.71;100118.03;3325141;29;20305;-73
2021/08/27 08:22:10;;;;;;;;;;;;;;;24.67;53.46;100115.03;3324858;29;19929;-74
2021/08/27 08:23:51;;;;;;;;;;;;;;;24.74;53.26;100112.84;3325204;29;20416;-74
2021/08/27 08:25:33;;;;;;;;;;;;;;;24.83;53.10;100108.44;3325082;29;19961;-74
2021/08/27 08:27:13;;;;;;;;;;;;;;;24.98;52.82;100113.81;3325219;29;19945;-74
2021/08/27 08:28:56;;;;;;;;;;;;;;;25.24;52.37;100111.81;3325010;29;19929;-74
2021/08/27 08:30:37;;;;;;;;;;;;;;;25.57;52.17;100114.06;3325167;29;19938;-73
2021/08/27 08:32:18;;;;;;;;;;;;;;;25.89;51.37;100119.03;3324983;29;20373;-74
2021/08/27 08:33:58;;;;;;;;;;;;;;;26.21;50.64;100114.94;3324865;29;19936;-74
2021/08/27 08:35:39;;;;;;;;;;;;;;;26.56;49.93;100113.75;3325471;29;19929;-74
2021/08/27 08:37:19;;;;;;;;;;;;;;;26.80;49.50;100119.25;3336698;29;19929;-72
2021/08/27 08:39:00;;;;;;;;;;;;;;;27.00;49.10;100118.16;3327017;29;19928;-74
2021/08/27 08:40:41;;;;;;;;;;;;;;;27.20;48.87;100122.56;3323846;29;20393;-73
2021/08/27 08:42:22;;;;;;;;;;;;;;;27.41;48.00;100123.91;3324832;29;20027;-73
2021/08/27 08:44:02;;;;;;;;;;;;;;;27.65;48.13;100119.44;3324893;29;20297;-72
2021/08/27 08:45:47;;;;;;;;;;;;;;;27.85;47.12;100132.84;3325265;29;19936;-73